Time;durP1;ratioP1;P1;durP2;ratioP2;P2;SDS_P1;SDS_P2;PMS_P1;PMS_P2;Temp;Humidity;BMP_temperature;BMP_pressure;BME280_temperature;BME280_humidity;BME280_pressure;Samples;Min_cycle;Max_cycle;Signal;HPM_P1;HPM_P2
2023/05/04 00:02:18;;;;;;;;;6.75;6.75;;;;;;;;6310916;22;8760;-70
2023/05/04 00:04:43;;;;;;;;;9.25;7.25;;;;;;;;6310394;22;9485;-70
2023/05/04 00:07:08;;;;;;;;;7.00;7.00;;;;;;;;6310224;22;8741;-70
2023/05/04 00:09:33;;;;;;;;;1.75;1.75;;;;;;;;6310038;22;8833;-70
2023/05/04 00:11:59;;;;;;;;;7.00;7.00;;;;;;;;6310219;22;8752;-70
2023/05/04 00:14:24;;;;;;;;;8.25;8.25;;;;;;;;6282563;22;10125;-70
2023/05/04 00:16:49;;;;;;;;;9.00;7.00;;;;;;;;6310023;22;8760;-70
2023/05/04 00:19:14;;;;;;;;;13.25;10.25;;;;;;;;6281878;22;9014;-70
2023/05/04 00:21:39;;;;;;;;;6.00;6.00;;;;;;;;6309628;22;8752;-70
2023/05/04 00:24:05;;;;;;;;;8.00;6.75;;;;;;;;6309438;22;8764;-70
2023/05/04 00:26:30;;;;;;;;;6.75;6.00;;;;;;;;6310346;22;8861;-70
2023/05/04 00:28:55;;;;;;;;;9.00;6.75;;;;;;;;6310270;22;8756;-70
2023/05/04 00:31:20;;;;;;;;;11.00;10.75;;;;;;;;6309938;22;8760;-69
2023/05/04 00:33:46;;;;;;;;;9.25;7.00;;;;;;;;6310015;22;8844;-70
2023/05/04 00:36:12;;;;;;;;;7.75;7.00;;;;;;;;6281950;22;9552;-70
2023/05/04 00:38:50;;;;;;;;;10.50;9.00;;;;;;;;6310602;22;8744;-70
2023/05/04 00:41:16;;;;;;;;;10.25;9.25;;;;;;;;6311088;22;11002;-70
2023/05/04 00:43:42;;;;;;;;;6.50;6.50;;;;;;;;6311069;22;11128;-70
2023/05/04 00:46:07;;;;;;;;;7.00;7.00;;;;;;;;6310857;22;12183;-70
2023/05/04 00:48:33;;;;;;;;;11.00;9.50;;;;;;;;6310865;22;8740;-70
2023/05/04 00:50:58;;;;;;;;;9.75;8.00;;;;;;;;6311261;22;8872;-69
2023/05/04 00:53:23;;;;;;;;;10.50;8.75;;;;;;;;6311399;22;8913;-69
2023/05/04 00:55:49;;;;;;;;;7.25;6.25;;;;;;;;6311651;22;8756;-70
2023/05/04 00:58:14;;;;;;;;;7.25;7.25;;;;;;;;6311255;22;8906;-69
2023/05/04 01:00:40;;;;;;;;;7.00;7.00;;;;;;;;6311578;22;8797;-71
2023/05/04 01:03:05;;;;;;;;;6.25;6.25;;;;;;;;6311460;22;8729;-69
2023/05/04 01:05:41;;;;;;;;;9.00;7.25;;;;;;;;6311246;22;8825;-69
2023/05/04 01:08:12;;;;;;;;;8.25;7.00;;;;;;;;6311484;22;8826;-69
2023/05/04 01:10:46;;;;;;;;;12.50;10.00;;;;;;;;6311480;22;12154;-68
2023/05/04 01:13:14;;;;;;;;;12.00;6.50;;;;;;;;6310941;22;11416;-70
2023/05/04 01:15:40;;;;;;;;;8.25;7.00;;;;;;;;6310562;22;11320;-69
2023/05/04 01:18:05;;;;;;;;;6.00;6.00;;;;;;;;6310814;22;11364;-69
2023/05/04 01:20:30;;;;;;;;;9.25;8.75;;;;;;;;6311421;22;11321;-70
2023/05/04 01:22:56;;;;;;;;;11.00;9.00;;;;;;;;6311273;22;8735;-69
2023/05/04 01:25:22;;;;;;;;;6.00;6.00;;;;;;;;6311343;22;8756;-70
2023/05/04 01:27:51;;;;;;;;;11.75;9.75;;;;;;;;6282921;22;8858;-70
2023/05/04 01:30:42;;;;;;;;;10.75;10.75;;;;;;;;6282945;22;11476;-70
2023/05/04 01:33:08;;;;;;;;;5.50;5.50;;;;;;;;6270608;22;11393;-70
2023/05/04 01:35:33;;;;;;;;;9.50;9.50;;;;;;;;6280179;22;11449;-70
2023/05/04 01:37:58;;;;;;;;;9.75;7.25;;;;;;;;6280134;22;8779;-70
2023/05/04 01:40:23;;;;;;;;;7.50;6.50;;;;;;;;6279850;22;8744;-70
2023/05/04 01:42:49;;;;;;;;;12.50;9.50;;;;;;;;6277753;22;8760;-70
2023/05/04 01:45:14;;;;;;;;;11.25;11.00;;;;;;;;6279783;22;8791;-70
2023/05/04 01:47:39;;;;;;;;;10.75;9.25;;;;;;;;6279974;22;8832;-70
2023/05/04 01:50:04;;;;;;;;;8.75;6.75;;;;;;;;6280111;22;8752;-70
2023/05/04 01:52:30;;;;;;;;;10.75;10.00;;;;;;;;6279797;22;8774;-70
2023/05/04 01:54:55;;;;;;;;;14.25;11.75;;;;;;;;6279666;22;8790;-70
2023/05/04 01:57:20;;;;;;;;;8.75;7.25;;;;;;;;6279858;22;8857;-69
2023/05/04 01:59:45;;;;;;;;;10.75;10.75;;;;;;;;6279406;22;8889;-69
2023/05/04 02:02:11;;;;;;;;;6.50;4.25;;;;;;;;6280008;22;8752;-70
2023/05/04 02:04:36;;;;;;;;;11.00;8.50;;;;;;;;6280533;22;8744;-70
2023/05/04 02:07:01;;;;;;;;;8.00;8.00;;;;;;;;6279819;22;8768;-70
2023/05/04 02:09:26;;;;;;;;;9.25;9.25;;;;;;;;6280100;22;8882;-71
2023/05/04 02:11:51;;;;;;;;;9.00;9.00;;;;;;;;6279938;22;8752;-70
2023/05/04 02:14:17;;;;;;;;;10.00;10.00;;;;;;;;6279724;22;8743;-70
2023/05/04 02:16:42;;;;;;;;;7.00;7.00;;;;;;;;6280008;22;8760;-70
2023/05/04 02:19:07;;;;;;;;;8.75;7.50;;;;;;;;6280110;22;8791;-69
2023/05/04 02:21:32;;;;;;;;;13.25;10.50;;;;;;;;6279909;22;9532;-71
2023/05/04 02:23:58;;;;;;;;;9.50;9.50;;;;;;;;6279628;22;8857;-70
2023/05/04 02:26:23;;;;;;;;;13.50;10.25;;;;;;;;6279760;22;8837;-70
2023/05/04 02:28:48;;;;;;;;;12.00;11.00;;;;;;;;6279049;22;9109;-70
2023/05/04 02:31:13;;;;;;;;;9.75;7.50;;;;;;;;6280027;22;8748;-69
2023/05/04 02:33:38;;;;;;;;;12.75;12.75;;;;;;;;6310975;22;8764;-69
2023/05/04 02:36:04;;;;;;;;;10.75;9.25;;;;;;;;6311392;22;8955;-70
2023/05/04 02:38:29;;;;;;;;;11.00;10.50;;;;;;;;6310754;22;8772;-70
2023/05/04 02:40:57;;;;;;;;;11.25;11.00;;;;;;;;6282940;22;9536;-69
2023/05/04 02:43:22;;;;;;;;;10.50;10.25;;;;;;;;6310443;22;8744;-69
2023/05/04 02:45:47;;;;;;;;;10.75;10.75;;;;;;;;6310874;22;11373;-70
2023/05/04 02:48:12;;;;;;;;;12.00;12.00;;;;;;;;6311123;22;8776;-69
2023/05/04 02:50:37;;;;;;;;;11.25;10.25;;;;;;;;6310791;22;8858;-68
2023/05/04 02:53:02;;;;;;;;;11.00;10.75;;;;;;;;6311023;22;8767;-70
2023/05/04 02:55:28;;;;;;;;;7.00;7.00;;;;;;;;6311081;22;8772;-69
2023/05/04 02:57:53;;;;;;;;;15.00;13.50;;;;;;;;6310172;22;8857;-70
2023/05/04 03:00:18;;;;;;;;;9.75;9.75;;;;;;;;6310486;22;8881;-70
2023/05/04 03:02:43;;;;;;;;;12.75;12.50;;;;;;;;6310698;22;8732;-70
2023/05/04 03:05:09;;;;;;;;;10.75;10.50;;;;;;;;6310306;22;8783;-70
2023/05/04 03:07:34;;;;;;;;;13.75;11.00;;;;;;;;6310323;22;9961;-70
2023/05/04 03:09:59;;;;;;;;;12.25;12.00;;;;;;;;6309590;22;8776;-69
2023/05/04 03:12:25;;;;;;;;;14.25;12.00;;;;;;;;6310131;22;8779;-70
2023/05/04 03:14:50;;;;;;;;;16.50;11.00;;;;;;;;6310959;22;8756;-69
2023/05/04 03:17:15;;;;;;;;;15.75;13.25;;;;;;;;6310590;22;8901;-69
2023/05/04 03:19:40;;;;;;;;;14.50;13.00;;;;;;;;6310465;22;9727;-69
2023/05/04 03:22:06;;;;;;;;;12.50;12.50;;;;;;;;6310975;22;8780;-68
2023/05/04 03:24:31;;;;;;;;;10.75;10.75;;;;;;;;6310234;22;8764;-69
2023/05/04 03:26:56;;;;;;;;;11.25;11.25;;;;;;;;6309781;22;8752;-69
2023/05/04 03:29:22;;;;;;;;;10.25;10.25;;;;;;;;6310230;22;8760;-71
2023/05/04 03:31:47;;;;;;;;;13.25;11.00;;;;;;;;6309830;22;8792;-70
2023/05/04 03:34:13;;;;;;;;;11.25;11.25;;;;;;;;6310943;22;8778;-78
2023/05/04 03:36:39;;;;;;;;;11.25;10.25;;;;;;;;6310855;22;8787;-70
2023/05/04 03:39:04;;;;;;;;;10.50;10.50;;;;;;;;6310234;22;11487;-68
2023/05/04 03:41:29;;;;;;;;;13.25;12.75;;;;;;;;6309749;22;9528;-73
2023/05/04 03:43:54;;;;;;;;;9.75;9.75;;;;;;;;6310493;22;8764;-81
2023/05/04 03:46:19;;;;;;;;;10.25;10.25;;;;;;;;6282741;22;8772;-69
2023/05/04 03:48:44;;;;;;;;;16.00;13.00;;;;;;;;6282806;22;9623;-69
2023/05/04 03:51:10;;;;;;;;;13.75;12.25;;;;;;;;6310561;22;8838;-69
2023/05/04 03:53:35;;;;;;;;;17.25;14.00;;;;;;;;6310508;22;8768;-69
2023/05/04 03:56:01;;;;;;;;;19.75;14.75;;;;;;;;6309708;22;9351;-68
2023/05/04 03:58:26;;;;;;;;;13.75;12.00;;;;;;;;6282183;22;9107;-88
2023/05/04 04:00:51;;;;;;;;;14.75;13.00;;;;;;;;6310069;22;8825;-70
2023/05/04 04:03:17;;;;;;;;;16.00;13.50;;;;;;;;6310413;22;8776;-70
2023/05/04 04:05:42;;;;;;;;;13.75;13.75;;;;;;;;6310223;22;8797;-72
2023/05/04 04:08:07;;;;;;;;;16.25;14.25;;;;;;;;6308324;22;8837;-71
2023/05/04 04:10:33;;;;;;;;;13.25;13.00;;;;;;;;6310362;22;8741;-71
2023/05/04 04:12:58;;;;;;;;;14.25;13.25;;;;;;;;6310483;22;8875;-70
2023/05/04 04:15:23;;;;;;;;;16.00;13.00;;;;;;;;6311832;22;8753;-69
2023/05/04 04:17:48;;;;;;;;;16.50;15.75;;;;;;;;6283572;22;8894;-71
2023/05/04 04:20:14;;;;;;;;;16.75;14.50;;;;;;;;6311768;22;8744;-70
2023/05/04 04:22:40;;;;;;;;;12.50;12.50;;;;;;;;6283987;22;9110;-70
2023/05/04 04:25:05;;;;;;;;;14.75;12.00;;;;;;;;6311658;22;11486;-69
2023/05/04 04:27:30;;;;;;;;;17.75;14.75;;;;;;;;6311572;22;8741;-68
2023/05/04 04:29:56;;;;;;;;;14.25;11.00;;;;;;;;6311845;22;8848;-69
2023/05/04 04:32:21;;;;;;;;;15.75;14.50;;;;;;;;6311372;22;8764;-68
2023/05/04 04:34:46;;;;;;;;;18.75;15.00;;;;;;;;6311263;22;8752;-69
2023/05/04 04:37:12;;;;;;;;;16.00;13.75;;;;;;;;6311613;22;8780;-69
2023/05/04 04:39:37;;;;;;;;;12.75;12.75;;;;;;;;6311720;22;8845;-69
2023/05/04 04:42:02;;;;;;;;;17.00;15.00;;;;;;;;6311659;22;8864;-69
2023/05/04 04:44:28;;;;;;;;;13.00;12.25;;;;;;;;6311791;22;8748;-71
2023/05/04 04:46:53;;;;;;;;;20.75;19.50;;;;;;;;6311465;22;8795;-70
2023/05/04 04:49:18;;;;;;;;;18.50;17.25;;;;;;;;6311897;22;9513;-69
2023/05/04 04:51:44;;;;;;;;;19.00;16.25;;;;;;;;6311781;22;8786;-70
2023/05/04 04:54:10;;;;;;;;;13.50;13.50;;;;;;;;6311414;22;8888;-69
2023/05/04 04:56:36;;;;;;;;;20.25;19.50;;;;;;;;6311643;22;8744;-69
2023/05/04 04:59:01;;;;;;;;;17.00;13.00;;;;;;;;6283273;22;8845;-69
2023/05/04 05:01:28;;;;;;;;;23.75;18.25;;;;;;;;6310818;22;11427;-70
2023/05/04 05:03:53;;;;;;;;;15.25;14.50;;;;;;;;6310994;22;8729;-69
2023/05/04 05:06:19;;;;;;;;;12.00;12.00;;;;;;;;6311766;22;11600;-70
2023/05/04 05:08:45;;;;;;;;;18.75;17.75;;;;;;;;6311436;22;9462;-69
2023/05/04 05:11:10;;;;;;;;;14.25;14.25;;;;;;;;6311721;22;8768;-69
2023/05/04 05:13:35;;;;;;;;;18.50;15.25;;;;;;;;6311463;22;8760;-69
2023/05/04 05:16:00;;;;;;;;;14.00;14.00;;;;;;;;6311543;22;8748;-70
2023/05/04 05:18:26;;;;;;;;;14.50;13.25;;;;;;;;6311445;22;9553;-69
2023/05/04 05:20:51;;;;;;;;;18.25;17.00;;;;;;;;6311383;22;8752;-69
2023/05/04 05:23:16;;;;;;;;;22.00;20.50;;;;;;;;6310617;22;8875;-69
2023/05/04 05:25:42;;;;;;;;;18.75;15.75;;;;;;;;6311410;22;8775;-69
2023/05/04 05:28:08;;;;;;;;;16.50;13.50;;;;;;;;6311280;22;8774;-69
2023/05/04 05:30:33;;;;;;;;;18.25;17.00;;;;;;;;6283286;22;8752;-69
2023/05/04 05:32:58;;;;;;;;;19.00;18.50;;;;;;;;6310618;22;8796;-69
2023/05/04 05:35:23;;;;;;;;;20.25;19.50;;;;;;;;6311540;22;8886;-69
2023/05/04 05:37:48;;;;;;;;;17.75;16.25;;;;;;;;6311026;22;9576;-69
2023/05/04 05:40:14;;;;;;;;;14.75;14.50;;;;;;;;6311234;22;8768;-69
2023/05/04 05:42:41;;;;;;;;;23.75;20.00;;;;;;;;6311475;22;8752;-69
2023/05/04 05:45:07;;;;;;;;;20.25;19.00;;;;;;;;6310913;22;8741;-69
2023/05/04 05:47:32;;;;;;;;;15.50;15.00;;;;;;;;6283181;22;11454;-70
2023/05/04 05:49:57;;;;;;;;;19.75;18.25;;;;;;;;6311181;22;8787;-70
2023/05/04 05:52:22;;;;;;;;;14.50;14.50;;;;;;;;6310981;22;8756;-69
2023/05/04 05:54:47;;;;;;;;;16.50;15.50;;;;;;;;6311555;22;8851;-69
2023/05/04 05:57:12;;;;;;;;;19.50;18.25;;;;;;;;6311181;22;8752;-69
2023/05/04 05:59:39;;;;;;;;;19.00;19.00;;;;;;;;6311521;22;8783;-70
2023/05/04 06:02:05;;;;;;;;;21.75;21.75;;;;;;;;6283274;22;8744;-70
2023/05/04 06:04:30;;;;;;;;;18.25;16.75;;;;;;;;6310998;22;11421;-70
2023/05/04 06:06:55;;;;;;;;;20.25;18.50;;;;;;;;6310903;22;8779;-69
2023/05/04 06:09:20;;;;;;;;;18.50;18.00;;;;;;;;6311255;22;8760;-69
2023/05/04 06:11:45;;;;;;;;;20.00;20.00;;;;;;;;6311191;22;8797;-69
2023/05/04 06:14:11;;;;;;;;;15.25;15.25;;;;;;;;6282962;22;8760;-69
2023/05/04 06:16:36;;;;;;;;;19.25;18.00;;;;;;;;6311295;22;8752;-70
2023/05/04 06:19:01;;;;;;;;;17.25;16.25;;;;;;;;6310987;22;8775;-69
2023/05/04 06:21:26;;;;;;;;;17.25;15.00;;;;;;;;6310977;22;8879;-69
2023/05/04 06:23:51;;;;;;;;;10.25;10.00;;;;;;;;6310741;22;9589;-69
2023/05/04 06:26:18;;;;;;;;;19.25;17.50;;;;;;;;6311007;22;8772;-69
2023/05/04 06:28:44;;;;;;;;;18.75;18.75;;;;;;;;6310913;22;8728;-69
2023/05/04 06:31:09;;;;;;;;;20.00;16.00;;;;;;;;6310970;22;11411;-70
2023/05/04 06:33:34;;;;;;;;;20.25;18.00;;;;;;;;6310133;22;8792;-69
2023/05/04 06:36:00;;;;;;;;;16.25;14.00;;;;;;;;6309767;22;8756;-69
2023/05/04 06:38:25;;;;;;;;;16.00;16.00;;;;;;;;6310889;22;8901;-69
2023/05/04 06:40:51;;;;;;;;;15.25;15.25;;;;;;;;6283147;22;11399;-69
2023/05/04 06:43:16;;;;;;;;;18.00;18.00;;;;;;;;6310780;22;8767;-69
2023/05/04 06:45:41;;;;;;;;;16.50;12.75;;;;;;;;6283037;22;9509;-69
2023/05/04 06:48:07;;;;;;;;;14.00;14.00;;;;;;;;6283236;22;8772;-70
2023/05/04 06:50:32;;;;;;;;;13.00;10.25;;;;;;;;6310871;22;8747;-70
2023/05/04 06:53:08;;;;;;;;;20.00;17.75;;;;;;;;6311067;22;11389;-69
2023/05/04 06:55:34;;;;;;;;;17.75;17.75;;;;;;;;6310764;22;8731;-69
2023/05/04 06:57:59;;;;;;;;;14.75;14.50;;;;;;;;6310428;22;11393;-70
2023/05/04 07:00:24;;;;;;;;;15.25;14.25;;;;;;;;6310971;22;9497;-69
2023/05/04 07:02:51;;;;;;;;;15.75;14.50;;;;;;;;6311070;22;9423;-70
2023/05/04 07:05:16;;;;;;;;;14.50;14.50;;;;;;;;6310531;22;8741;-69
2023/05/04 07:07:41;;;;;;;;;14.50;14.50;;;;;;;;6310875;22;11402;-69
2023/05/04 07:10:07;;;;;;;;;11.75;11.75;;;;;;;;6310559;22;8822;-69
2023/05/04 07:12:32;;;;;;;;;14.50;12.50;;;;;;;;6310845;22;9531;-69
2023/05/04 07:14:57;;;;;;;;;18.25;16.50;;;;;;;;6310555;22;9489;-70
2023/05/04 07:17:24;;;;;;;;;15.75;15.75;;;;;;;;6310435;22;8822;-70
2023/05/04 07:19:51;;;;;;;;;8.00;7.25;;;;;;;;6310446;22;8954;-70
2023/05/04 07:22:16;;;;;;;;;12.75;12.75;;;;;;;;6310764;22;11345;-69
2023/05/04 07:24:41;;;;;;;;;17.50;14.00;;;;;;;;6310768;22;11483;-69
2023/05/04 07:27:06;;;;;;;;;16.00;14.75;;;;;;;;6310522;22;8780;-69
2023/05/04 07:29:31;;;;;;;;;15.00;13.50;;;;;;;;6310921;22;8776;-69
2023/05/04 07:31:56;;;;;;;;;12.25;12.25;;;;;;;;6310378;22;8853;-69
2023/05/04 07:34:23;;;;;;;;;14.75;14.75;;;;;;;;6310277;22;8756;-69
2023/05/04 07:36:49;;;;;;;;;14.75;13.25;;;;;;;;6310524;22;11388;-69
2023/05/04 07:39:15;;;;;;;;;14.50;14.25;;;;;;;;6310145;22;8833;-69
2023/05/04 07:41:40;;;;;;;;;14.75;13.00;;;;;;;;6310708;22;8717;-69
2023/05/04 07:44:07;;;;;;;;;18.25;15.75;;;;;;;;6310777;22;12122;-69
2023/05/04 07:46:32;;;;;;;;;15.00;14.00;;;;;;;;6310263;22;8729;-69
2023/05/04 07:48:57;;;;;;;;;12.00;12.00;;;;;;;;6310245;22;12241;-69
2023/05/04 07:51:23;;;;;;;;;15.00;14.00;;;;;;;;6310332;22;8745;-69
2023/05/04 07:53:48;;;;;;;;;13.25;12.75;;;;;;;;6310463;22;8760;-69
2023/05/04 07:56:13;;;;;;;;;13.50;13.50;;;;;;;;6310617;22;9658;-69
2023/05/04 07:58:38;;;;;;;;;12.00;12.00;;;;;;;;6282576;22;8784;-69
2023/05/04 08:01:04;;;;;;;;;14.50;14.50;;;;;;;;6310310;22;8887;-69
2023/05/04 08:03:30;;;;;;;;;14.25;12.25;;;;;;;;6310474;22;8953;-69
2023/05/04 08:05:56;;;;;;;;;15.00;13.50;;;;;;;;6282156;22;9725;-69
2023/05/04 08:08:21;;;;;;;;;15.00;14.00;;;;;;;;6310379;22;11050;-69
2023/05/04 08:10:46;;;;;;;;;13.25;13.25;;;;;;;;6310190;22;8744;-68
2023/05/04 08:13:11;;;;;;;;;14.00;12.50;;;;;;;;6310503;22;8752;-69
2023/05/04 08:15:37;;;;;;;;;12.00;11.25;;;;;;;;6310085;22;8787;-69
2023/05/04 08:18:02;;;;;;;;;17.50;15.50;;;;;;;;6309661;22;9489;-69
2023/05/04 08:20:27;;;;;;;;;15.00;15.00;;;;;;;;6311249;22;8754;-69
2023/05/04 08:22:52;;;;;;;;;14.00;10.75;;;;;;;;6283154;22;9753;-69
2023/05/04 08:25:18;;;;;;;;;15.25;15.25;;;;;;;;6311446;22;8756;-69
2023/05/04 08:27:43;;;;;;;;;17.25;14.50;;;;;;;;6311974;22;8752;-70
2023/05/04 08:30:09;;;;;;;;;17.25;13.50;;;;;;;;6311814;22;8741;-69
2023/05/04 08:32:34;;;;;;;;;16.75;13.50;;;;;;;;6310506;22;8779;-69
2023/05/04 08:34:59;;;;;;;;;11.25;11.25;;;;;;;;6311056;22;8783;-69
2023/05/04 08:37:25;;;;;;;;;11.75;10.75;;;;;;;;6312002;22;8748;-68
2023/05/04 08:39:50;;;;;;;;;13.25;13.25;;;;;;;;6311384;22;8799;-69
2023/05/04 08:42:25;;;;;;;;;12.75;11.25;;;;;;;;6312069;22;8759;-69
2023/05/04 08:44:50;;;;;;;;;13.50;13.50;;;;;;;;6312053;22;8737;-69
2023/05/04 08:47:16;;;;;;;;;11.25;10.75;;;;;;;;6311676;22;11108;-70
2023/05/04 08:49:41;;;;;;;;;12.25;12.25;;;;;;;;6311951;22;8744;-69
2023/05/04 08:52:07;;;;;;;;;13.00;12.00;;;;;;;;6283601;22;8826;-69
2023/05/04 08:54:33;;;;;;;;;12.75;12.00;;;;;;;;6283815;22;8736;-68
2023/05/04 08:56:58;;;;;;;;;15.50;14.50;;;;;;;;6283800;22;8756;-69
2023/05/04 08:59:23;;;;;;;;;13.75;12.00;;;;;;;;6312046;22;8802;-69
2023/05/04 09:01:51;;;;;;;;;16.75;14.50;;;;;;;;6284864;22;8772;-77
2023/05/04 09:04:17;;;;;;;;;16.00;13.00;;;;;;;;6284839;22;8968;-71
2023/05/04 09:06:42;;;;;;;;;12.00;11.50;;;;;;;;6312762;22;10926;-71
2023/05/04 09:09:08;;;;;;;;;13.75;11.00;;;;;;;;6313067;22;8760;-69
2023/05/04 09:11:34;;;;;;;;;11.00;10.00;;;;;;;;6285180;22;8741;-69
2023/05/04 09:13:59;;;;;;;;;15.25;15.25;;;;;;;;6284821;22;11945;-71
2023/05/04 09:16:32;;;;;;;;;18.50;16.50;;;;;;;;6312973;22;8767;-69
2023/05/04 09:18:57;;;;;;;;;12.25;11.00;;;;;;;;6313393;22;8759;-70
2023/05/04 09:21:29;;;;;;;;;16.50;15.75;;;;;;;;6285444;22;10939;-71
2023/05/04 09:23:55;;;;;;;;;15.75;14.50;;;;;;;;6313134;22;8732;-70
2023/05/04 09:26:27;;;;;;;;;13.25;12.75;;;;;;;;6313411;22;11117;-70
2023/05/04 09:28:52;;;;;;;;;16.00;13.00;;;;;;;;6313039;22;8724;-70
2023/05/04 09:31:18;;;;;;;;;9.50;9.50;;;;;;;;6312599;22;11097;-69
2023/05/04 09:33:43;;;;;;;;;11.25;10.75;;;;;;;;6312903;22;8794;-70
2023/05/04 09:36:13;;;;;;;;;11.75;11.75;;;;;;;;6312984;22;9528;-69
2023/05/04 09:38:38;;;;;;;;;11.00;11.00;;;;;;;;6312733;22;8744;-69
2023/05/04 09:41:03;;;;;;;;;13.50;12.50;;;;;;;;6312820;22;10923;-69
2023/05/04 09:43:39;;;;;;;;;11.75;11.75;;;;;;;;6313181;22;8784;-69
2023/05/04 09:46:04;;;;;;;;;8.50;8.50;;;;;;;;6312561;22;8721;-68
2023/05/04 09:48:30;;;;;;;;;14.75;13.75;;;;;;;;6312660;22;11193;-68
2023/05/04 09:50:56;;;;;;;;;9.50;9.50;;;;;;;;6284689;22;8851;-69
2023/05/04 09:53:23;;;;;;;;;12.50;12.50;;;;;;;;6312926;22;8721;-69
2023/05/04 09:55:56;;;;;;;;;9.50;9.50;;;;;;;;6312677;22;11182;-68
2023/05/04 09:58:21;;;;;;;;;11.00;10.25;;;;;;;;6312169;22;10855;-69
2023/05/04 10:00:47;;;;;;;;;12.00;12.00;;;;;;;;6312763;22;10841;-69
2023/05/04 10:03:13;;;;;;;;;11.75;10.75;;;;;;;;6312712;22;9473;-69
2023/05/04 10:05:39;;;;;;;;;12.00;11.00;;;;;;;;6284772;22;8752;-69
2023/05/04 10:08:04;;;;;;;;;12.00;10.75;;;;;;;;6312769;22;8752;-69
2023/05/04 10:10:30;;;;;;;;;11.25;11.25;;;;;;;;6313022;22;8961;-69
2023/05/04 10:12:55;;;;;;;;;11.00;11.00;;;;;;;;6312535;22;8760;-69
2023/05/04 10:15:21;;;;;;;;;11.50;11.00;;;;;;;;6312766;22;8798;-69
2023/05/04 10:17:54;;;;;;;;;13.50;13.50;;;;;;;;6312940;22;8751;-69
2023/05/04 10:20:22;;;;;;;;;11.50;10.50;;;;;;;;6312615;22;8785;-69
2023/05/04 10:22:47;;;;;;;;;10.50;10.50;;;;;;;;6312698;22;10952;-69
2023/05/04 10:25:42;;;;;;;;;13.60;13.00;;;;;;;;6311826;22;10799;-69
2023/05/04 10:28:16;;;;;;;;;10.50;9.25;;;;;;;;6276103;22;8736;-69
2023/05/04 10:30:41;;;;;;;;;12.75;11.00;;;;;;;;6311365;22;11135;-69
2023/05/04 10:33:07;;;;;;;;;10.50;10.25;;;;;;;;6311245;22;10927;-68
2023/05/04 10:35:32;;;;;;;;;7.00;7.00;;;;;;;;6312796;22;8744;-68
2023/05/04 10:37:57;;;;;;;;;7.00;7.00;;;;;;;;6312603;22;8768;-69
2023/05/04 10:40:36;;;;;;;;;8.75;8.75;;;;;;;;6312071;22;8768;-69
2023/05/04 10:43:01;;;;;;;;;11.50;11.25;;;;;;;;6312416;22;8725;-69
2023/05/04 10:45:46;;;;;;;;;9.50;8.00;;;;;;;;6312709;22;10639;-69
2023/05/04 10:48:12;;;;;;;;;9.75;9.75;;;;;;;;6311111;22;8775;-69
2023/05/04 10:50:55;;;;;;;;;11.75;10.75;;;;;;;;6312406;22;10559;-69
2023/05/04 10:53:30;;;;;;;;;10.75;10.75;;;;;;;;6312533;22;8725;-69
2023/05/04 10:55:55;;;;;;;;;10.00;9.75;;;;;;;;6312292;22;10625;-69
2023/05/04 10:58:26;;;;;;;;;10.75;10.75;;;;;;;;6312498;22;10632;-69
2023/05/04 11:00:51;;;;;;;;;9.75;9.75;;;;;;;;6284603;22;8713;-69
2023/05/04 11:03:17;;;;;;;;;8.75;8.75;;;;;;;;6312638;22;10778;-69
2023/05/04 11:05:44;;;;;;;;;13.50;12.25;;;;;;;;6312105;22;8740;-69
2023/05/04 11:08:25;;;;;;;;;7.50;7.50;;;;;;;;6312085;22;10423;-69
2023/05/04 11:11:11;;;;;;;;;9.75;9.00;;;;;;;;6311848;22;10504;-70
2023/05/04 11:13:46;;;;;;;;;13.50;10.50;;;;;;;;6283222;22;10521;-70
2023/05/04 11:16:12;;;;;;;;;12.50;9.00;;;;;;;;6312084;22;10517;-70
2023/05/04 11:18:37;;;;;;;;;7.00;7.00;;;;;;;;6284472;22;10386;-70
2023/05/04 11:21:02;;;;;;;;;9.75;7.50;;;;;;;;6312158;22;8752;-69
2023/05/04 11:23:28;;;;;;;;;10.25;8.25;;;;;;;;6311483;22;8798;-70
2023/05/04 11:25:54;;;;;;;;;10.00;9.50;;;;;;;;6311760;22;8838;-69
2023/05/04 11:28:19;;;;;;;;;9.75;9.25;;;;;;;;6311966;22;8775;-70
2023/05/04 11:30:46;;;;;;;;;9.25;8.50;;;;;;;;6312725;22;8768;-70
2023/05/04 11:33:15;;;;;;;;;10.25;9.50;;;;;;;;6311467;22;8756;-69
2023/05/04 11:35:42;;;;;;;;;10.50;7.75;;;;;;;;6311922;22;10491;-70
2023/05/04 11:38:07;;;;;;;;;7.75;7.25;;;;;;;;6312008;22;10542;-70
2023/05/04 11:40:33;;;;;;;;;9.00;9.00;;;;;;;;6311823;22;10528;-70
2023/05/04 11:42:59;;;;;;;;;8.75;8.75;;;;;;;;6312437;22;8752;-70
2023/05/04 11:45:31;;;;;;;;;7.00;6.25;;;;;;;;6312192;22;9555;-70
2023/05/04 11:47:57;;;;;;;;;10.00;9.50;;;;;;;;6310814;22;8720;-69
2023/05/04 11:50:23;;;;;;;;;9.25;8.00;;;;;;;;6311150;22;10524;-69
2023/05/04 11:52:49;;;;;;;;;9.50;9.50;;;;;;;;6310950;22;11344;-70
2023/05/04 11:55:25;;;;;;;;;7.75;7.25;;;;;;;;6310622;22;10799;-69
2023/05/04 11:58:00;;;;;;;;;11.25;9.75;;;;;;;;6283636;22;8849;-70
2023/05/04 12:00:38;;;;;;;;;9.00;8.75;;;;;;;;6310874;22;11208;-70
2023/05/04 12:03:14;;;;;;;;;9.75;8.75;;;;;;;;6282963;22;10580;-70
2023/05/04 12:05:46;;;;;;;;;10.00;8.75;;;;;;;;6284300;22;10558;-69
2023/05/04 12:08:31;;;;;;;;;6.75;6.75;;;;;;;;6312263;22;10681;-70
2023/05/04 12:11:15;;;;;;;;;9.25;9.00;;;;;;;;6311497;22;10496;-69
2023/05/04 12:13:41;;;;;;;;;8.75;8.00;;;;;;;;6312308;22;10510;-69
2023/05/04 12:16:07;;;;;;;;;8.00;7.00;;;;;;;;6311777;22;10439;-69
2023/05/04 12:18:32;;;;;;;;;9.50;9.00;;;;;;;;6311979;22;11787;-70
2023/05/04 12:21:06;;;;;;;;;9.25;9.00;;;;;;;;6312080;22;10523;-69
2023/05/04 12:23:31;;;;;;;;;9.00;9.00;;;;;;;;6311985;22;8747;-69
2023/05/04 12:25:57;;;;;;;;;10.50;8.50;;;;;;;;6312017;22;10493;-69
2023/05/04 12:28:25;;;;;;;;;8.50;8.50;;;;;;;;6311882;22;8803;-69
2023/05/04 12:30:51;;;;;;;;;7.75;7.75;;;;;;;;6311858;22;8721;-70
2023/05/04 12:33:17;;;;;;;;;9.50;9.50;;;;;;;;6310179;22;10480;-69
2023/05/04 12:35:42;;;;;;;;;11.75;9.25;;;;;;;;6313012;22;10486;-69
2023/05/04 12:38:07;;;;;;;;;7.50;7.00;;;;;;;;6312279;22;8736;-70
2023/05/04 12:40:32;;;;;;;;;7.00;7.00;;;;;;;;6312314;22;8748;-70
2023/05/04 12:42:57;;;;;;;;;6.00;6.00;;;;;;;;6313202;22;8756;-70
2023/05/04 12:45:23;;;;;;;;;7.50;7.50;;;;;;;;6312406;22;8763;-70
2023/05/04 12:47:48;;;;;;;;;9.00;9.00;;;;;;;;6312653;22;8788;-70
2023/05/04 12:50:13;;;;;;;;;5.50;5.50;;;;;;;;6312903;22;8798;-70
2023/05/04 12:52:39;;;;;;;;;8.25;7.25;;;;;;;;6312285;22;8784;-70
2023/05/04 12:55:05;;;;;;;;;7.00;7.00;;;;;;;;6311346;22;9438;-71
2023/05/04 12:57:30;;;;;;;;;7.00;7.00;;;;;;;;6311205;22;10509;-72
2023/05/04 12:59:55;;;;;;;;;6.75;6.75;;;;;;;;6310982;22;9164;-72
2023/05/04 13:02:21;;;;;;;;;7.00;7.00;;;;;;;;6311624;22;8791;-72
2023/05/04 13:04:46;;;;;;;;;6.50;6.50;;;;;;;;6311427;22;8760;-70
2023/05/04 13:07:13;;;;;;;;;5.75;5.75;;;;;;;;6311071;22;8745;-72
2023/05/04 13:09:38;;;;;;;;;8.75;8.75;;;;;;;;6311426;22;8705;-69
2023/05/04 13:12:04;;;;;;;;;7.25;6.75;;;;;;;;6311412;22;10371;-70
2023/05/04 13:14:29;;;;;;;;;7.75;7.75;;;;;;;;6312462;22;8748;-70
2023/05/04 13:16:54;;;;;;;;;7.50;7.50;;;;;;;;6312509;22;8818;-68
2023/05/04 13:19:20;;;;;;;;;8.00;7.00;;;;;;;;6312285;22;8926;-69
2023/05/04 13:21:46;;;;;;;;;9.25;9.25;;;;;;;;6312723;22;8760;-68
2023/05/04 13:24:11;;;;;;;;;7.50;7.50;;;;;;;;6312617;22;8721;-69
2023/05/04 13:26:37;;;;;;;;;8.25;8.25;;;;;;;;6313092;22;10516;-68
2023/05/04 13:29:03;;;;;;;;;8.50;8.50;;;;;;;;6312530;22;8784;-69
2023/05/04 13:31:28;;;;;;;;;9.50;9.25;;;;;;;;6312467;22;8736;-69
2023/05/04 13:33:53;;;;;;;;;10.50;8.50;;;;;;;;6312964;22;10320;-70
2023/05/04 13:36:18;;;;;;;;;9.25;7.50;;;;;;;;6312845;22;8744;-70
2023/05/04 13:38:43;;;;;;;;;10.00;10.00;;;;;;;;6312990;22;8873;-70
2023/05/04 13:41:09;;;;;;;;;9.50;8.75;;;;;;;;6312885;22;8748;-69
2023/05/04 13:43:34;;;;;;;;;9.25;9.00;;;;;;;;6312773;22;9399;-71
2023/05/04 13:46:02;;;;;;;;;9.00;9.00;;;;;;;;6312546;22;8826;-70
2023/05/04 13:48:28;;;;;;;;;8.75;8.75;;;;;;;;6313009;22;8885;-70
2023/05/04 13:50:53;;;;;;;;;10.50;10.50;;;;;;;;6312458;22;10439;-70
2023/05/04 13:53:18;;;;;;;;;8.25;8.00;;;;;;;;6312508;22;8740;-69
2023/05/04 13:55:43;;;;;;;;;10.50;9.75;;;;;;;;6285115;22;8764;-70
2023/05/04 13:58:09;;;;;;;;;10.25;10.25;;;;;;;;6284440;22;8771;-71
2023/05/04 14:00:34;;;;;;;;;7.25;7.25;;;;;;;;6312601;22;8755;-70
2023/05/04 14:02:59;;;;;;;;;11.50;10.50;;;;;;;;6313104;22;8771;-70
2023/05/04 14:05:24;;;;;;;;;9.75;9.75;;;;;;;;6311911;22;8732;-70
2023/05/04 14:07:51;;;;;;;;;13.00;11.00;;;;;;;;6284848;22;8967;-70
2023/05/04 14:10:16;;;;;;;;;10.25;10.25;;;;;;;;6312975;22;8725;-70
2023/05/04 14:12:41;;;;;;;;;9.50;9.50;;;;;;;;6313093;22;10806;-70
2023/05/04 14:15:07;;;;;;;;;11.25;11.00;;;;;;;;6312808;22;9160;-70
2023/05/04 14:17:32;;;;;;;;;9.75;8.75;;;;;;;;6283374;22;8783;-70
2023/05/04 14:19:57;;;;;;;;;7.75;7.75;;;;;;;;6284070;22;8833;-70
2023/05/04 14:22:22;;;;;;;;;9.75;9.50;;;;;;;;6312485;22;8760;-70
2023/05/04 14:24:48;;;;;;;;;11.00;10.75;;;;;;;;6312027;22;8771;-70
2023/05/04 14:27:13;;;;;;;;;9.75;9.75;;;;;;;;6312418;22;8752;-71
2023/05/04 14:29:38;;;;;;;;;11.25;11.25;;;;;;;;6311697;22;8760;-69
2023/05/04 14:32:04;;;;;;;;;9.00;8.00;;;;;;;;6312256;22;8850;-71